Date,TemperatureHighF,TemperatureAvgF,TemperatureLowF,DewpointHighF,DewpointAvgF,DewpointLowF,HumidityHigh,HumidityAvg,HumidityLow,PressureMaxIn,PressureMinIn,WindSpeedMaxMPH,WindSpeedAvgMPH,GustSpeedMaxMPH,PrecipitationSumIn
2013-1-8,60.9,54.6,46.8,47.6,41.6,-99.9,82,69,53,29.39,29.28,3,0,1,0.00
2013-1-9,52.0,45.7,41.3,48.0,41.7,35.3,95,86,77,29.26,29.19,17,4,19,0.06
2013-1-10,46.4,44.3,41.9,35.1,33.9,31.9,76,67,60,29.32,29.26,20,7,20,0.01
2013-1-11,46.7,43.1,40.5,38.5,37.5,33.0,88,81,70,29.42,29.30,14,2,16,0.00
2013-1-12,41.3,38.0,36.5,37.3,28.3,26.5,89,68,59,29.36,29.33,3,0,0,0.01
2013-1-13,47.9,42.5,36.2,29.7,21.5,13.5,75,45,28,29.42,29.35,5,0,0,0.00
2013-3-5,47.0,47.0,47.0,43.9,43.9,43.9,89,89,89,29.02,29.01,13,4,13,0.43
2013-3-6,52.8,47.1,42.6,44.5,38.1,34.9,90,72,58,29.24,29.02,12,1,14,0.35
2013-3-7,50.2,47.6,42.6,41.5,39.1,34.9,75,72,70,29.17,29.04,5,1,0,0.00
2013-4-15,50.2,48.9,47.3,34.9,34.0,32.5,62,56,53,29.09,29.08,27,16,29,0.00
2013-4-16,62.4,54.4,44.2,33.4,30.8,25.1,65,42,26,29.26,29.23,15,4,17,0.00
2013-4-17,63.7,59.7,54.8,30.9,27.4,21.2,39,29,22,29.44,29.36,18,7,22,0.00
2013-4-18,64.5,63.6,63.1,29.6,28.3,26.7,27,26,26,29.43,29.43,5,0,0,0.00
2013-4-21,79.2,73.8,70.4,39.5,37.2,34.8,32,27,23,29.22,29.17,6,0,0,0.00
2013-4-22,81.1,76.5,67.9,44.6,41.6,35.9,38,29,21,29.11,29.02,8,2,0,0.00
2013-4-23,51.1,51.1,51.0,44.8,44.6,44.5,79,78,78,29.06,29.06,1,0,0,0.00
2013-4-24,71.6,57.4,48.5,50.7,48.6,44.4,94,74,47,29.10,29.02,6,0,0,0.00
2013-4-25,68.1,59.5,48.6,51.8,47.9,44.6,87,67,53,29.31,29.22,12,2,14,0.00
2013-4-26,62.3,56.6,49.1,49.3,47.6,45.4,87,72,62,29.40,29.30,5,1,0,0.00
2013-6-26,79.9,77.4,75.8,64.6,63.4,60.9,67,62,53,29.21,29.17,12,2,13,0.00
2013-6-30,91.6,83.7,72.3,60.6,52.6,46.2,50,35,26,29.00,28.95,15,2,17,0.00
2013-7-1,96.1,89.2,87.0,62.6,59.4,48.6,44,38,21,29.00,28.99,4,0,0,0.00
2013-7-2,77.6,73.6,71.1,61.3,59.8,58.7,65,62,57,29.06,29.05,0,0,0,0.00